createdAt,value
2018-12-04T00:01:44.617Z,56.90
2018-12-04T00:04:11.867Z,56.90
2018-12-04T00:06:39.088Z,56.70
2018-12-04T00:09:07.422Z,56.80
2018-12-04T00:11:34.630Z,57.10
2018-12-04T00:14:01.845Z,57.00
2018-12-04T00:16:29.067Z,57.10
2018-12-04T00:18:56.288Z,57.20
2018-12-04T00:21:23.715Z,57.10
2018-12-04T00:23:50.931Z,57.20
2018-12-04T00:26:18.214Z,57.10
2018-12-04T00:28:45.490Z,57.30
2018-12-04T00:31:14.211Z,57.40
2018-12-04T00:33:42.771Z,57.40
2018-12-04T00:36:09.991Z,57.30
2018-12-04T00:38:38.152Z,57.40
2018-12-04T00:41:06.302Z,57.60
2018-12-04T00:43:34.315Z,57.50
2018-12-04T00:46:02.455Z,57.60
2018-12-04T00:48:29.675Z,57.50
2018-12-04T00:50:57.686Z,57.60
2018-12-04T00:53:25.825Z,57.70
2018-12-04T00:55:53.968Z,57.60
2018-12-04T00:58:22.149Z,58.20
2018-12-04T01:00:50.280Z,57.60
2018-12-04T01:03:17.537Z,57.60
2018-12-04T01:05:46.562Z,57.60
2018-12-04T01:08:15.691Z,57.70
2018-12-04T01:10:44.988Z,57.90
2018-12-04T01:13:12.779Z,57.90
2018-12-04T01:15:40.901Z,57.80
2018-12-04T01:18:08.901Z,57.80
2018-12-04T01:20:37.055Z,57.70
2018-12-04T01:23:05.245Z,57.80
2018-12-04T01:25:32.511Z,57.80
2018-12-04T01:27:59.748Z,57.90
2018-12-04T01:30:26.962Z,58.00
2018-12-04T01:32:55.192Z,58.00
2018-12-04T01:35:22.417Z,57.90
2018-12-04T01:37:50.558Z,57.90
2018-12-04T01:40:18.742Z,57.90
2018-12-04T01:42:46.862Z,57.90
2018-12-04T01:45:15.016Z,58.00
2018-12-04T01:47:43.772Z,58.10
2018-12-04T01:50:11.787Z,58.10
2018-12-04T01:52:39.000Z,58.00
2018-12-04T01:55:07.026Z,58.00
2018-12-04T01:57:35.206Z,58.10
2018-12-04T02:00:03.342Z,58.00
2018-12-04T02:02:30.565Z,58.10
2018-12-04T02:04:57.826Z,58.20
2018-12-04T02:07:25.079Z,58.40
2018-12-04T02:09:52.412Z,58.20
2018-12-04T02:12:20.477Z,58.30
2018-12-04T02:14:47.696Z,58.20
2018-12-04T02:17:15.732Z,58.00
2018-12-04T02:19:44.014Z,58.00
2018-12-04T02:22:11.229Z,57.90
2018-12-04T02:24:38.452Z,57.70
2018-12-04T02:27:06.603Z,57.70
2018-12-04T02:29:33.827Z,57.60
2018-12-04T02:32:01.042Z,57.70
2018-12-04T02:34:28.256Z,57.70
2018-12-04T02:36:55.477Z,57.70
2018-12-04T02:39:22.685Z,57.90
2018-12-04T02:41:49.904Z,58.00
2018-12-04T02:44:18.027Z,57.90
2018-12-04T02:46:45.264Z,57.90
2018-12-04T02:49:13.239Z,57.90
2018-12-04T02:51:40.470Z,57.90
2018-12-04T02:54:07.694Z,57.90
2018-12-04T02:56:34.907Z,58.00
2018-12-04T02:59:02.112Z,58.10
2018-12-04T03:01:29.346Z,58.10
2018-12-04T03:03:56.565Z,58.10
2018-12-04T03:06:23.778Z,58.10
2018-12-04T03:08:51.006Z,58.30
2018-12-04T03:11:18.220Z,58.10
2018-12-04T03:13:45.451Z,58.10
2018-12-04T03:16:13.421Z,58.30
2018-12-04T03:18:40.642Z,58.30
2018-12-04T03:21:07.866Z,58.50
2018-12-04T03:23:35.130Z,58.40
2018-12-04T03:26:03.276Z,58.40
2018-12-04T03:28:31.355Z,58.40
2018-12-04T03:30:59.440Z,58.30
2018-12-04T03:33:32.872Z,58.30
2018-12-04T03:36:00.097Z,58.50
2018-12-04T03:38:27.323Z,58.50
2018-12-04T03:40:54.529Z,58.50
2018-12-04T03:43:21.744Z,58.60
2018-12-04T03:45:48.955Z,58.60
2018-12-04T03:48:16.186Z,58.60
2018-12-04T03:50:45.447Z,58.40
2018-12-04T03:53:13.450Z,58.60
2018-12-04T03:55:40.704Z,58.70
2018-12-04T03:58:08.831Z,58.70
2018-12-04T04:00:36.081Z,58.70
2018-12-04T04:03:03.306Z,58.50
2018-12-04T04:05:31.370Z,58.70
2018-12-04T04:07:58.588Z,58.50
2018-12-04T04:10:25.851Z,58.50
2018-12-04T04:12:53.848Z,58.60
2018-12-04T04:15:22.035Z,58.50
2018-12-04T04:17:50.177Z,58.60
2018-12-04T04:20:17.428Z,58.80
2018-12-04T04:22:45.446Z,58.70
2018-12-04T04:25:13.265Z,58.60
2018-12-04T04:27:41.306Z,58.40
2018-12-04T04:30:08.573Z,58.40
2018-12-04T04:32:35.788Z,58.50
2018-12-04T04:35:03.041Z,58.30
2018-12-04T04:37:30.267Z,58.40
2018-12-04T04:39:57.506Z,58.40
2018-12-04T04:42:25.543Z,58.20
2018-12-04T04:44:52.760Z,58.10
2018-12-04T04:47:19.965Z,58.00
2018-12-04T04:49:48.097Z,58.00
2018-12-04T04:52:15.361Z,57.90
2018-12-04T04:54:43.962Z,57.90
2018-12-04T04:57:12.702Z,57.80
2018-12-04T04:59:39.972Z,57.80
2018-12-04T05:02:08.023Z,58.10
2018-12-04T05:04:36.021Z,58.50
2018-12-04T05:07:04.212Z,58.10
2018-12-04T05:09:32.364Z,57.80
2018-12-04T05:12:00.544Z,57.80
2018-12-04T05:14:27.785Z,58.00
2018-12-04T05:16:55.988Z,57.90
2018-12-04T05:19:23.246Z,57.90
2018-12-04T05:21:51.264Z,57.80
2018-12-04T05:24:18.515Z,57.90
2018-12-04T05:26:45.740Z,57.90
2018-12-04T05:29:14.954Z,57.90
2018-12-04T05:31:42.605Z,58.40
2018-12-04T05:34:09.838Z,57.80
2018-12-04T05:36:37.068Z,57.80
2018-12-04T05:39:04.968Z,57.70
2018-12-04T05:41:32.185Z,57.70
2018-12-04T05:43:59.400Z,57.60
2018-12-04T05:46:26.621Z,57.60
2018-12-04T05:48:53.835Z,57.70
2018-12-04T05:51:21.043Z,57.70
2018-12-04T05:53:48.262Z,57.60
2018-12-04T05:56:15.484Z,57.70
2018-12-04T05:58:43.561Z,57.90
2018-12-04T06:01:10.747Z,57.70
2018-12-04T06:03:37.971Z,57.70
2018-12-04T06:06:05.198Z,58.10
2018-12-04T06:08:32.407Z,58.20
2018-12-04T06:10:59.629Z,57.70
2018-12-04T06:13:26.878Z,57.40
2018-12-04T06:15:54.092Z,56.80
2018-12-04T06:18:21.313Z,57.30
2018-12-04T06:20:49.395Z,57.40
2018-12-04T06:23:16.617Z,57.30
2018-12-04T06:25:45.531Z,57.40
2018-12-04T06:28:14.237Z,57.60
2018-12-04T06:30:41.498Z,58.00
2018-12-04T06:33:09.759Z,57.40
2018-12-04T06:35:37.004Z,57.30
2018-12-04T06:38:04.216Z,57.30
2018-12-04T06:40:32.215Z,57.20
2018-12-04T06:43:00.293Z,57.20
2018-12-04T06:45:27.506Z,57.20
2018-12-04T06:47:55.667Z,57.30
2018-12-04T06:50:22.875Z,57.20
2018-12-04T06:52:50.102Z,57.10
2018-12-04T06:55:17.377Z,57.10
2018-12-04T06:57:46.570Z,57.00
2018-12-04T07:00:14.246Z,57.10
2018-12-04T07:02:41.446Z,57.50
2018-12-04T07:05:08.697Z,56.80
2018-12-04T07:07:36.877Z,56.90
2018-12-04T07:10:04.172Z,56.90
2018-12-04T07:12:31.385Z,56.90
2018-12-04T07:14:59.388Z,56.90
2018-12-04T07:17:26.592Z,56.90
2018-12-04T07:19:54.634Z,56.90
2018-12-04T07:22:21.853Z,57.30
2018-12-04T07:24:49.860Z,57.40
2018-12-04T07:27:17.103Z,57.10
2018-12-04T07:29:45.130Z,56.80
2018-12-04T07:32:13.261Z,56.60
2018-12-04T07:34:40.496Z,56.60
2018-12-04T07:37:08.517Z,56.60
2018-12-04T07:39:35.747Z,56.60
2018-12-04T07:42:03.776Z,56.50
2018-12-04T07:44:31.850Z,56.50
2018-12-04T07:46:59.064Z,56.30
2018-12-04T07:49:27.253Z,56.40
2018-12-04T07:51:54.523Z,56.40
2018-12-04T07:54:21.755Z,56.40
2018-12-04T07:56:49.013Z,56.50
2018-12-04T07:59:17.024Z,56.50
2018-12-04T08:01:45.135Z,56.40
2018-12-04T08:04:16.095Z,56.40
2018-12-04T08:06:44.157Z,56.40
2018-12-04T08:09:11.408Z,56.30
2018-12-04T08:11:38.625Z,56.30
2018-12-04T08:14:05.851Z,56.40
2018-12-04T08:16:34.670Z,56.40
2018-12-04T08:19:02.696Z,56.30
2018-12-04T08:21:29.911Z,56.30
2018-12-04T08:23:57.128Z,56.40
2018-12-04T08:26:24.390Z,56.30
2018-12-04T08:28:52.443Z,56.30
2018-12-04T08:31:22.052Z,56.20
2018-12-04T08:33:49.310Z,56.20
2018-12-04T08:36:16.586Z,56.30
2018-12-04T08:38:44.942Z,56.30
2018-12-04T08:41:12.704Z,56.20
2018-12-04T08:43:40.773Z,56.30
2018-12-04T08:46:08.018Z,56.30
2018-12-04T08:48:35.284Z,56.20
2018-12-04T08:51:02.494Z,56.20
2018-12-04T08:53:30.687Z,56.10
2018-12-04T08:55:58.701Z,56.10
2018-12-04T08:58:25.955Z,56.10
2018-12-04T09:00:53.232Z,56.10
2018-12-04T09:03:20.564Z,56.00
2018-12-04T09:05:48.636Z,55.80
2018-12-04T09:08:15.916Z,56.10
2018-12-04T09:10:43.933Z,56.10
2018-12-04T09:13:11.161Z,56.00
2018-12-04T09:15:39.225Z,56.10
2018-12-04T09:18:06.472Z,56.00
2018-12-04T09:20:34.534Z,56.00
2018-12-04T09:23:01.905Z,55.70
2018-12-04T09:25:29.290Z,55.70
2018-12-04T09:27:56.549Z,55.50
2018-12-04T09:30:23.807Z,55.60
2018-12-04T09:32:51.965Z,55.70
2018-12-04T09:35:19.206Z,55.50
2018-12-04T09:37:46.472Z,55.60
2018-12-04T09:40:14.621Z,55.50
2018-12-04T09:42:41.835Z,55.60
2018-12-04T09:45:09.054Z,55.50
2018-12-04T09:47:36.279Z,55.60
2018-12-04T09:50:04.123Z,55.70
2018-12-04T09:52:31.375Z,55.50
2018-12-04T09:54:58.634Z,55.60
2018-12-04T09:57:25.857Z,55.60
2018-12-04T09:59:53.098Z,55.60
2018-12-04T10:02:20.342Z,55.70
2018-12-04T10:04:48.507Z,55.70
2018-12-04T10:07:15.770Z,55.60
2018-12-04T10:09:44.003Z,55.60
2018-12-04T10:12:11.259Z,55.60
2018-12-04T10:14:38.475Z,55.60
2018-12-04T10:17:06.510Z,55.70
2018-12-04T10:19:33.765Z,55.80
2018-12-04T10:22:01.929Z,55.70
2018-12-04T10:24:29.149Z,55.60
2018-12-04T10:26:57.556Z,55.60
2018-12-04T10:29:25.670Z,55.90
2018-12-04T10:31:55.902Z,55.60
2018-12-04T10:34:22.938Z,55.70
2018-12-04T10:36:50.150Z,55.70
2018-12-04T10:39:17.374Z,55.80
2018-12-04T10:41:44.590Z,55.60
2018-12-04T10:44:11.805Z,55.70
2018-12-04T10:46:39.126Z,55.70
2018-12-04T10:49:06.371Z,55.90
2018-12-04T10:51:33.584Z,55.70
2018-12-04T10:54:00.803Z,55.80
2018-12-04T10:56:28.011Z,55.80
2018-12-04T10:58:55.261Z,55.80
2018-12-04T11:01:24.465Z,55.70
2018-12-04T11:03:51.682Z,55.80
2018-12-04T11:06:18.945Z,55.90
2018-12-04T11:08:47.090Z,56.00
2018-12-04T11:11:15.296Z,56.00
2018-12-04T11:13:43.182Z,56.60
2018-12-04T11:16:10.426Z,56.10
2018-12-04T11:18:37.642Z,59.30
2018-12-04T11:21:05.774Z,56.50
2018-12-04T11:23:32.987Z,58.30
2018-12-04T11:26:01.146Z,56.50
2018-12-04T11:28:29.203Z,56.50
2018-12-04T11:30:56.469Z,56.90
2018-12-04T11:33:23.702Z,58.40
2018-12-04T11:35:51.863Z,57.10
2018-12-04T11:38:19.890Z,57.00
2018-12-04T11:40:47.100Z,56.80
2018-12-04T11:43:14.325Z,56.30
2018-12-04T11:45:42.389Z,56.10
2018-12-04T11:48:09.621Z,56.00
2018-12-04T11:50:36.867Z,56.00
2018-12-04T11:53:04.080Z,56.30
2018-12-04T11:55:32.112Z,56.30
2018-12-04T11:57:59.354Z,56.00
2018-12-04T12:00:29.356Z,55.80
2018-12-04T12:02:56.582Z,55.80
2018-12-04T12:05:23.800Z,55.80
2018-12-04T12:07:51.026Z,55.90
2018-12-04T12:10:18.242Z,56.10
2018-12-04T12:12:45.465Z,55.90
2018-12-04T12:15:17.988Z,56.00
2018-12-04T12:17:43.544Z,56.40
2018-12-04T12:20:11.676Z,56.10
2018-12-04T12:22:39.726Z,55.80
2018-12-04T12:25:07.864Z,55.80
2018-12-04T12:27:35.186Z,55.90
2018-12-04T12:30:02.407Z,55.70
2018-12-04T12:32:30.473Z,57.00
2018-12-04T12:34:58.594Z,55.70
2018-12-04T12:37:26.759Z,55.80
2018-12-04T12:39:53.974Z,55.80
2018-12-04T12:42:22.006Z,56.20
2018-12-04T12:44:49.248Z,55.70
2018-12-04T12:47:16.464Z,55.90
2018-12-04T12:49:44.411Z,55.60
2018-12-04T12:52:13.208Z,55.80
2018-12-04T12:54:41.239Z,55.70
2018-12-04T12:57:08.452Z,56.30
2018-12-04T12:59:36.594Z,56.20
2018-12-04T13:02:03.807Z,56.00
2018-12-04T13:04:31.964Z,55.40
2018-12-04T13:06:59.446Z,55.10
2018-12-04T13:09:26.663Z,55.10
2018-12-04T13:11:54.663Z,55.20
2018-12-04T13:14:22.845Z,55.20
2018-12-04T13:16:50.075Z,55.10
2018-12-04T13:19:17.296Z,55.00
2018-12-04T13:21:44.554Z,55.00
2018-12-04T13:24:11.791Z,55.00
2018-12-04T13:26:39.854Z,55.00
2018-12-04T13:29:08.036Z,55.10
2018-12-04T13:31:36.228Z,55.00
2018-12-04T13:34:04.289Z,54.80
2018-12-04T13:36:31.549Z,54.80
2018-12-04T13:38:59.583Z,54.80
2018-12-04T13:41:27.595Z,54.80
2018-12-04T13:43:55.745Z,54.90
2018-12-04T13:46:23.760Z,54.70
2018-12-04T13:48:50.978Z,54.80
2018-12-04T13:51:18.188Z,54.80
2018-12-04T13:53:45.437Z,54.70
2018-12-04T13:56:14.614Z,54.80
2018-12-04T13:58:41.892Z,55.30
2018-12-04T14:01:09.132Z,54.60
2018-12-04T14:03:36.383Z,54.50
2018-12-04T14:06:04.448Z,54.50
2018-12-04T14:08:31.655Z,54.70
2018-12-04T14:10:58.872Z,54.90
2018-12-04T14:13:26.090Z,54.90
2018-12-04T14:15:56.770Z,55.00
2018-12-04T14:18:23.426Z,54.90
2018-12-04T14:20:50.655Z,54.80
2018-12-04T14:23:18.683Z,54.80
2018-12-04T14:25:45.909Z,54.80
2018-12-04T14:28:13.664Z,55.10
2018-12-04T14:30:40.876Z,55.00
2018-12-04T14:33:08.087Z,55.00
2018-12-04T14:35:36.134Z,54.80
2018-12-04T14:38:03.390Z,54.60
2018-12-04T14:40:31.415Z,54.50
2018-12-04T14:42:58.664Z,54.60
2018-12-04T14:45:25.871Z,54.60
2018-12-04T14:47:53.153Z,54.40
2018-12-04T14:50:20.392Z,54.30
2018-12-04T14:52:47.631Z,54.30
2018-12-04T14:55:14.899Z,54.40
2018-12-04T14:57:42.638Z,54.40
2018-12-04T15:00:10.268Z,54.30
2018-12-04T15:02:37.497Z,54.90
2018-12-04T15:05:05.286Z,54.30
2018-12-04T15:07:32.526Z,54.30
2018-12-04T15:09:59.790Z,54.40
2018-12-04T15:12:27.023Z,54.40
2018-12-04T15:14:54.339Z,54.30
2018-12-04T15:17:21.544Z,54.30
2018-12-04T15:19:49.630Z,54.30
2018-12-04T15:22:16.849Z,54.10
2018-12-04T15:24:44.118Z,54.10
2018-12-04T15:27:11.376Z,54.10
2018-12-04T15:29:38.658Z,54.20
2018-12-04T15:32:05.884Z,54.10
2018-12-04T15:34:33.934Z,54.10
2018-12-04T15:37:01.853Z,54.20
2018-12-04T15:39:30.006Z,54.10
2018-12-04T15:41:58.196Z,54.00
2018-12-04T15:44:26.432Z,54.00
2018-12-04T15:46:54.724Z,54.00
2018-12-04T15:49:22.863Z,54.00
2018-12-04T15:51:51.071Z,54.00
2018-12-04T15:54:19.216Z,53.90
2018-12-04T15:56:46.448Z,53.70
2018-12-04T15:59:14.502Z,53.70
2018-12-04T16:01:41.771Z,53.80
2018-12-04T16:04:09.941Z,53.70
2018-12-04T16:06:37.191Z,53.60
2018-12-04T16:09:05.679Z,53.60
2018-12-04T16:11:32.888Z,53.50
2018-12-04T16:14:00.103Z,53.70
2018-12-04T16:16:27.324Z,54.30
2018-12-04T16:18:54.540Z,53.70
2018-12-04T16:21:21.774Z,53.50
2018-12-04T16:23:48.991Z,53.50
2018-12-04T16:28:59.617Z,53.50
2018-12-04T16:31:26.833Z,53.70
2018-12-04T16:33:54.073Z,53.70
2018-12-04T16:36:21.300Z,53.70
2018-12-04T16:38:48.515Z,53.60
2018-12-04T16:41:15.740Z,54.10
2018-12-04T16:43:44.788Z,53.30
2018-12-04T16:46:13.050Z,53.40
2018-12-04T16:48:40.269Z,53.30
2018-12-04T16:51:07.495Z,53.30
2018-12-04T16:53:34.887Z,53.20
2018-12-04T16:56:02.096Z,53.30
2018-12-04T16:58:29.323Z,53.20
2018-12-04T17:00:56.533Z,53.10
2018-12-04T17:03:23.805Z,53.10
2018-12-04T17:05:51.022Z,53.10
2018-12-04T17:08:18.244Z,53.20
2018-12-04T17:10:45.509Z,53.30
2018-12-04T17:13:13.485Z,53.10
2018-12-04T17:15:40.746Z,52.90
2018-12-04T17:18:07.974Z,53.00
2018-12-04T17:20:36.094Z,53.00
2018-12-04T17:23:04.276Z,52.90
2018-12-04T17:25:31.489Z,52.90
2018-12-04T17:27:58.705Z,53.00
2018-12-04T17:30:26.014Z,53.00
2018-12-04T17:32:53.451Z,52.90
2018-12-04T17:35:20.666Z,52.80
2018-12-04T17:37:47.930Z,52.80
2018-12-04T17:40:16.097Z,52.90
2018-12-04T17:42:44.291Z,52.70
2018-12-04T17:45:11.516Z,52.80
2018-12-04T17:47:38.774Z,52.80
2018-12-04T17:50:05.952Z,52.80
2018-12-04T17:52:33.160Z,52.80
2018-12-04T17:55:01.968Z,52.70
2018-12-04T17:57:30.413Z,52.60
2018-12-04T17:59:57.635Z,52.80
2018-12-04T18:02:24.866Z,52.80
2018-12-04T18:04:52.124Z,52.70
2018-12-04T18:07:19.415Z,52.50
2018-12-04T18:09:46.681Z,52.60
2018-12-04T18:12:15.798Z,52.70
2018-12-04T18:14:44.049Z,52.60
2018-12-04T18:17:11.316Z,52.60
2018-12-04T18:19:38.574Z,52.50
2018-12-04T18:22:05.779Z,52.60
2018-12-04T18:24:33.042Z,52.50
2018-12-04T18:27:00.269Z,52.60
2018-12-04T18:29:27.524Z,52.40
2018-12-04T18:31:54.742Z,52.40
2018-12-04T18:34:22.877Z,52.50
2018-12-04T18:36:50.101Z,52.40
2018-12-04T18:39:17.311Z,52.40
2018-12-04T18:44:20.067Z,52.50
2018-12-04T18:46:47.414Z,52.60
2018-12-04T18:49:14.637Z,52.50
2018-12-04T18:51:42.940Z,52.50
2018-12-04T18:54:10.940Z,52.40
2018-12-04T18:56:38.244Z,52.20
2018-12-04T18:59:05.568Z,52.30
2018-12-04T19:01:34.032Z,52.30
2018-12-04T19:04:01.266Z,52.20
2018-12-04T19:06:29.452Z,52.20
2018-12-04T19:08:56.670Z,52.20
2018-12-04T19:11:23.936Z,52.20
2018-12-04T19:13:51.146Z,52.10
2018-12-04T19:16:18.476Z,51.90
2018-12-04T19:18:45.697Z,51.90
2018-12-04T19:21:14.133Z,52.00
2018-12-04T19:23:41.355Z,52.10
2018-12-04T19:26:08.611Z,52.00
2018-12-04T19:28:35.839Z,52.00
2018-12-04T19:31:03.214Z,52.10
2018-12-04T19:33:31.266Z,51.90
2018-12-04T19:35:59.433Z,51.90
2018-12-04T19:38:26.685Z,51.80
2018-12-04T19:40:53.906Z,51.80
2018-12-04T19:43:22.120Z,51.80
2018-12-04T19:45:49.394Z,51.80
2018-12-04T19:48:16.648Z,51.60
2018-12-04T19:50:44.811Z,51.80
2018-12-04T19:53:13.026Z,51.70
2018-12-04T19:55:40.248Z,51.60
2018-12-04T19:58:08.552Z,52.20
2018-12-04T20:00:36.600Z,51.50
2018-12-04T20:03:03.817Z,51.60
2018-12-04T20:05:31.959Z,51.40
2018-12-04T20:08:00.371Z,51.30
2018-12-04T20:10:27.669Z,51.40
2018-12-04T20:12:54.892Z,51.40
2018-12-04T20:15:22.133Z,51.40
2018-12-04T20:17:49.363Z,51.40
2018-12-04T20:20:16.591Z,51.30
2018-12-04T20:22:44.554Z,51.20
2018-12-04T20:25:11.826Z,51.20
2018-12-04T20:27:39.703Z,51.20
2018-12-04T20:30:06.980Z,51.30
2018-12-04T20:32:34.298Z,51.10
2018-12-04T20:35:01.560Z,51.10
2018-12-04T20:37:29.572Z,51.40
2018-12-04T20:39:56.796Z,51.00
2018-12-04T20:42:24.838Z,51.10
2018-12-04T20:44:52.057Z,51.20
2018-12-04T20:47:20.265Z,51.30
2018-12-04T20:49:47.600Z,51.30
2018-12-04T20:52:14.810Z,51.30
2018-12-04T20:54:43.286Z,51.20
2018-12-04T20:57:10.509Z,51.30
2018-12-04T20:59:37.823Z,51.40
2018-12-04T21:02:05.072Z,51.10
2018-12-04T21:04:32.321Z,51.10
2018-12-04T21:06:59.618Z,51.10
2018-12-04T21:09:26.929Z,51.10
2018-12-04T21:11:55.086Z,51.30
2018-12-04T21:14:22.309Z,51.30
2018-12-04T21:16:49.528Z,51.20
2018-12-04T21:19:16.742Z,51.10
2018-12-04T21:21:45.073Z,51.10
2018-12-04T21:24:13.663Z,51.20
2018-12-04T21:26:40.888Z,51.00
2018-12-04T21:29:14.729Z,51.00
2018-12-04T21:31:48.471Z,51.10
2018-12-04T21:34:21.388Z,51.00
2018-12-04T21:36:54.466Z,50.80
2018-12-04T21:39:23.669Z,51.00
2018-12-04T21:41:57.606Z,51.10
2018-12-04T21:44:30.555Z,51.10
2018-12-04T21:47:03.641Z,51.20
2018-12-04T21:49:30.861Z,51.10
2018-12-04T21:51:58.141Z,51.10
2018-12-04T21:54:25.398Z,51.00
2018-12-04T21:56:52.696Z,51.10
2018-12-04T21:59:19.897Z,51.20
2018-12-04T22:01:47.156Z,51.10
2018-12-04T22:04:15.306Z,51.10
2018-12-04T22:06:43.251Z,51.00
2018-12-04T22:09:10.486Z,50.90
2018-12-04T22:11:38.619Z,50.90
2018-12-04T22:14:05.835Z,51.00
2018-12-04T22:16:33.045Z,51.10
2018-12-04T22:19:00.265Z,51.10
2018-12-04T22:21:28.490Z,51.20
2018-12-04T22:23:55.738Z,51.20
2018-12-04T22:26:22.962Z,51.10
2018-12-04T22:28:50.169Z,51.00
2018-12-04T22:31:17.514Z,51.10
2018-12-04T22:33:44.767Z,51.10
2018-12-04T22:36:13.280Z,51.00
2018-12-04T22:38:41.296Z,50.80
2018-12-04T22:41:08.570Z,50.80
2018-12-04T22:43:35.786Z,50.80
2018-12-04T22:46:03.090Z,50.90
2018-12-04T22:48:31.178Z,51.00
2018-12-04T22:50:58.403Z,51.00
2018-12-04T22:53:25.626Z,50.90
2018-12-04T22:55:52.846Z,50.90
2018-12-04T22:58:20.067Z,51.00
2018-12-04T23:00:47.281Z,50.90
2018-12-04T23:03:14.499Z,51.00
2018-12-04T23:05:41.716Z,50.90
2018-12-04T23:08:08.930Z,50.90
2018-12-04T23:10:36.154Z,51.10
2018-12-04T23:13:03.377Z,50.80
2018-12-04T23:15:30.584Z,51.00
2018-12-04T23:17:57.810Z,51.00
2018-12-04T23:20:25.083Z,50.90
2018-12-04T23:22:52.291Z,50.80
2018-12-04T23:25:19.565Z,50.90
2018-12-04T23:27:47.698Z,50.90
2018-12-04T23:30:15.873Z,50.90
2018-12-04T23:32:43.782Z,50.90
2018-12-04T23:35:10.995Z,50.90
2018-12-04T23:37:39.086Z,50.90
2018-12-04T23:40:06.304Z,51.00
2018-12-04T23:42:34.456Z,50.80
2018-12-04T23:45:02.658Z,50.70
2018-12-04T23:47:29.879Z,50.60
2018-12-04T23:49:58.066Z,50.80
2018-12-04T23:52:25.283Z,50.70
2018-12-04T23:54:53.311Z,50.80
2018-12-04T23:57:20.527Z,50.70
2018-12-04T23:59:48.662Z,50.80
